sensor_id;sensor_type;location;lat;lon;timestamp;P1;durP1;ratioP1;P2;durP2;ratioP2
71423;SDS011;59240;51.370;-0.486;2024-03-17T00:03:00;2.90;;;1.75;;
71423;SDS011;59240;51.370;-0.486;2024-03-17T00:07:56;1.77;;;1.35;;
71423;SDS011;59240;51.370;-0.486;2024-03-17T00:12:51;2.45;;;2.05;;
71423;SDS011;59240;51.370;-0.486;2024-03-17T00:17:47;3.80;;;2.30;;
71423;SDS011;59240;51.370;-0.486;2024-03-17T00:22:42;3.97;;;2.47;;
71423;SDS011;59240;51.370;-0.486;2024-03-17T00:27:38;3.38;;;2.47;;
71423;SDS011;59240;51.370;-0.486;2024-03-17T00:32:39;3.45;;;2.63;;
71423;SDS011;59240;51.370;-0.486;2024-03-17T00:37:38;6.50;;;3.15;;
71423;SDS011;59240;51.370;-0.486;2024-03-17T00:42:34;6.57;;;3.53;;
71423;SDS011;59240;51.370;-0.486;2024-03-17T00:47:29;8.43;;;3.10;;
71423;SDS011;59240;51.370;-0.486;2024-03-17T00:52:25;6.35;;;3.00;;
71423;SDS011;59240;51.370;-0.486;2024-03-17T00:57:21;5.22;;;3.17;;
71423;SDS011;59240;51.370;-0.486;2024-03-17T01:02:17;4.45;;;2.58;;
71423;SDS011;59240;51.370;-0.486;2024-03-17T01:07:13;6.45;;;3.22;;
71423;SDS011;59240;51.370;-0.486;2024-03-17T01:12:10;6.57;;;3.40;;
71423;SDS011;59240;51.370;-0.486;2024-03-17T01:17:06;4.57;;;3.33;;
71423;SDS011;59240;51.370;-0.486;2024-03-17T01:22:02;7.65;;;3.63;;
71423;SDS011;59240;51.370;-0.486;2024-03-17T01:26:58;10.73;;;4.97;;
71423;SDS011;59240;51.370;-0.486;2024-03-17T01:31:54;10.38;;;4.75;;
71423;SDS011;59240;51.370;-0.486;2024-03-17T01:36:51;11.23;;;5.43;;
71423;SDS011;59240;51.370;-0.486;2024-03-17T01:41:46;14.95;;;6.18;;
71423;SDS011;59240;51.370;-0.486;2024-03-17T01:46:42;11.43;;;5.30;;
71423;SDS011;59240;51.370;-0.486;2024-03-17T01:51:39;14.88;;;5.63;;
71423;SDS011;59240;51.370;-0.486;2024-03-17T01:56:35;13.18;;;6.13;;
71423;SDS011;59240;51.370;-0.486;2024-03-17T02:01:31;12.20;;;5.90;;
71423;SDS011;59240;51.370;-0.486;2024-03-17T02:06:27;19.48;;;6.60;;
71423;SDS011;59240;51.370;-0.486;2024-03-17T02:11:32;20.45;;;6.28;;
71423;SDS011;59240;51.370;-0.486;2024-03-17T02:16:28;15.20;;;5.90;;
71423;SDS011;59240;51.370;-0.486;2024-03-17T02:21:27;15.25;;;6.25;;
71423;SDS011;59240;51.370;-0.486;2024-03-17T02:26:24;17.95;;;7.60;;
71423;SDS011;59240;51.370;-0.486;2024-03-17T02:31:22;16.55;;;6.75;;
71423;SDS011;59240;51.370;-0.486;2024-03-17T02:36:17;16.10;;;7.05;;
71423;SDS011;59240;51.370;-0.486;2024-03-17T02:41:13;13.18;;;6.00;;
71423;SDS011;59240;51.370;-0.486;2024-03-17T02:46:12;13.60;;;5.82;;
71423;SDS011;59240;51.370;-0.486;2024-03-17T02:51:08;17.40;;;7.28;;
71423;SDS011;59240;51.370;-0.486;2024-03-17T02:56:05;13.70;;;6.50;;
71423;SDS011;59240;51.370;-0.486;2024-03-17T03:01:02;11.75;;;5.40;;
71423;SDS011;59240;51.370;-0.486;2024-03-17T03:06:01;11.35;;;4.72;;
71423;SDS011;59240;51.370;-0.486;2024-03-17T03:10:59;12.18;;;5.75;;
71423;SDS011;59240;51.370;-0.486;2024-03-17T03:15:55;9.13;;;5.63;;
71423;SDS011;59240;51.370;-0.486;2024-03-17T03:20:51;12.02;;;5.22;;
71423;SDS011;59240;51.370;-0.486;2024-03-17T03:25:55;12.27;;;5.63;;
71423;SDS011;59240;51.370;-0.486;2024-03-17T03:30:55;18.17;;;5.97;;
71423;SDS011;59240;51.370;-0.486;2024-03-17T03:35:50;13.13;;;5.53;;
71423;SDS011;59240;51.370;-0.486;2024-03-17T03:40:46;14.85;;;4.07;;
71423;SDS011;59240;51.370;-0.486;2024-03-17T03:45:43;15.32;;;5.20;;
71423;SDS011;59240;51.370;-0.486;2024-03-17T03:50:39;13.73;;;5.50;;
71423;SDS011;59240;51.370;-0.486;2024-03-17T03:55:35;10.00;;;4.25;;
71423;SDS011;59240;51.370;-0.486;2024-03-17T04:00:32;10.15;;;4.65;;
71423;SDS011;59240;51.370;-0.486;2024-03-17T04:05:29;7.18;;;3.75;;
71423;SDS011;59240;51.370;-0.486;2024-03-17T04:10:25;8.85;;;4.22;;
71423;SDS011;59240;51.370;-0.486;2024-03-17T04:15:21;10.25;;;4.18;;
71423;SDS011;59240;51.370;-0.486;2024-03-17T04:20:16;9.18;;;3.80;;
71423;SDS011;59240;51.370;-0.486;2024-03-17T04:25:12;8.65;;;4.15;;
71423;SDS011;59240;51.370;-0.486;2024-03-17T04:30:09;9.80;;;4.25;;
71423;SDS011;59240;51.370;-0.486;2024-03-17T04:35:07;9.05;;;3.25;;
71423;SDS011;59240;51.370;-0.486;2024-03-17T04:40:02;8.70;;;3.97;;
71423;SDS011;59240;51.370;-0.486;2024-03-17T04:45:00;8.38;;;3.90;;
71423;SDS011;59240;51.370;-0.486;2024-03-17T04:49:56;13.73;;;4.43;;
71423;SDS011;59240;51.370;-0.486;2024-03-17T04:54:51;14.40;;;4.07;;
71423;SDS011;59240;51.370;-0.486;2024-03-17T04:59:47;14.75;;;3.53;;
71423;SDS011;59240;51.370;-0.486;2024-03-17T05:04:43;12.93;;;4.70;;
71423;SDS011;59240;51.370;-0.486;2024-03-17T05:09:39;12.45;;;3.67;;
71423;SDS011;59240;51.370;-0.486;2024-03-17T05:14:34;13.57;;;3.78;;
71423;SDS011;59240;51.370;-0.486;2024-03-17T05:19:30;9.73;;;4.00;;
71423;SDS011;59240;51.370;-0.486;2024-03-17T05:24:26;12.55;;;4.45;;
71423;SDS011;59240;51.370;-0.486;2024-03-17T05:29:22;15.65;;;5.25;;
71423;SDS011;59240;51.370;-0.486;2024-03-17T05:34:17;13.85;;;5.13;;
71423;SDS011;59240;51.370;-0.486;2024-03-17T05:39:13;16.55;;;5.40;;
71423;SDS011;59240;51.370;-0.486;2024-03-17T05:44:09;11.95;;;5.15;;
71423;SDS011;59240;51.370;-0.486;2024-03-17T05:49:05;13.20;;;4.88;;
71423;SDS011;59240;51.370;-0.486;2024-03-17T05:54:02;7.90;;;3.83;;
71423;SDS011;59240;51.370;-0.486;2024-03-17T05:58:57;12.80;;;5.43;;
71423;SDS011;59240;51.370;-0.486;2024-03-17T06:03:53;10.65;;;4.65;;
71423;SDS011;59240;51.370;-0.486;2024-03-17T06:08:48;9.65;;;3.97;;
71423;SDS011;59240;51.370;-0.486;2024-03-17T06:13:44;10.95;;;3.85;;
71423;SDS011;59240;51.370;-0.486;2024-03-17T06:18:40;12.82;;;3.97;;
71423;SDS011;59240;51.370;-0.486;2024-03-17T06:23:36;12.55;;;4.32;;
71423;SDS011;59240;51.370;-0.486;2024-03-17T06:28:32;11.10;;;3.83;;
71423;SDS011;59240;51.370;-0.486;2024-03-17T06:33:27;14.77;;;4.32;;
71423;SDS011;59240;51.370;-0.486;2024-03-17T06:38:23;13.68;;;3.83;;
71423;SDS011;59240;51.370;-0.486;2024-03-17T06:43:19;11.73;;;4.03;;
71423;SDS011;59240;51.370;-0.486;2024-03-17T06:48:15;12.50;;;3.95;;
71423;SDS011;59240;51.370;-0.486;2024-03-17T06:53:11;12.98;;;4.00;;
71423;SDS011;59240;51.370;-0.486;2024-03-17T06:58:07;12.50;;;4.00;;
71423;SDS011;59240;51.370;-0.486;2024-03-17T07:03:02;14.38;;;3.78;;
71423;SDS011;59240;51.370;-0.486;2024-03-17T07:07:58;12.88;;;3.58;;
71423;SDS011;59240;51.370;-0.486;2024-03-17T07:12:54;9.50;;;2.97;;
71423;SDS011;59240;51.370;-0.486;2024-03-17T07:17:50;7.78;;;3.13;;
71423;SDS011;59240;51.370;-0.486;2024-03-17T07:22:46;12.27;;;3.00;;
71423;SDS011;59240;51.370;-0.486;2024-03-17T07:27:45;7.18;;;2.47;;
71423;SDS011;59240;51.370;-0.486;2024-03-17T07:32:40;6.45;;;2.05;;
71423;SDS011;59240;51.370;-0.486;2024-03-17T07:37:36;9.60;;;2.67;;
71423;SDS011;59240;51.370;-0.486;2024-03-17T07:42:32;8.73;;;2.22;;
71423;SDS011;59240;51.370;-0.486;2024-03-17T07:47:28;5.20;;;1.42;;
71423;SDS011;59240;51.370;-0.486;2024-03-17T07:52:31;7.07;;;1.85;;
71423;SDS011;59240;51.370;-0.486;2024-03-17T07:57:27;3.67;;;2.25;;
71423;SDS011;59240;51.370;-0.486;2024-03-17T08:02:22;3.15;;;1.10;;
71423;SDS011;59240;51.370;-0.486;2024-03-17T08:07:18;5.30;;;1.45;;
71423;SDS011;59240;51.370;-0.486;2024-03-17T08:12:14;4.70;;;1.73;;
71423;SDS011;59240;51.370;-0.486;2024-03-17T08:17:10;4.03;;;1.42;;
71423;SDS011;59240;51.370;-0.486;2024-03-17T08:22:05;4.53;;;1.65;;
71423;SDS011;59240;51.370;-0.486;2024-03-17T08:27:01;4.65;;;1.25;;
71423;SDS011;59240;51.370;-0.486;2024-03-17T08:31:57;4.30;;;1.20;;
71423;SDS011;59240;51.370;-0.486;2024-03-17T08:36:53;9.65;;;1.95;;
71423;SDS011;59240;51.370;-0.486;2024-03-17T08:41:48;4.50;;;1.25;;
71423;SDS011;59240;51.370;-0.486;2024-03-17T08:46:44;4.25;;;1.70;;
71423;SDS011;59240;51.370;-0.486;2024-03-17T08:51:39;5.95;;;1.77;;
71423;SDS011;59240;51.370;-0.486;2024-03-17T08:56:35;4.28;;;1.67;;
71423;SDS011;59240;51.370;-0.486;2024-03-17T09:01:32;3.72;;;1.50;;
71423;SDS011;59240;51.370;-0.486;2024-03-17T09:06:27;1.73;;;0.95;;
71423;SDS011;59240;51.370;-0.486;2024-03-17T09:11:25;2.92;;;1.20;;
71423;SDS011;59240;51.370;-0.486;2024-03-17T09:16:23;1.75;;;0.80;;
71423;SDS011;59240;51.370;-0.486;2024-03-17T09:21:20;3.40;;;0.82;;
71423;SDS011;59240;51.370;-0.486;2024-03-17T09:26:15;1.02;;;0.43;;
71423;SDS011;59240;51.370;-0.486;2024-03-17T09:31:12;2.10;;;0.40;;
71423;SDS011;59240;51.370;-0.486;2024-03-17T09:36:09;2.40;;;0.60;;
71423;SDS011;59240;51.370;-0.486;2024-03-17T09:41:10;3.92;;;0.82;;
71423;SDS011;59240;51.370;-0.486;2024-03-17T09:46:16;0.43;;;0.30;;
71423;SDS011;59240;51.370;-0.486;2024-03-17T09:51:23;0.52;;;0.40;;
71423;SDS011;59240;51.370;-0.486;2024-03-17T09:56:20;0.30;;;0.30;;
71423;SDS011;59240;51.370;-0.486;2024-03-17T10:01:16;1.85;;;0.40;;
71423;SDS011;59240;51.370;-0.486;2024-03-17T10:06:13;1.10;;;0.55;;
71423;SDS011;59240;51.370;-0.486;2024-03-17T10:11:10;0.55;;;0.40;;
71423;SDS011;59240;51.370;-0.486;2024-03-17T10:16:07;0.82;;;0.52;;
71423;SDS011;59240;51.370;-0.486;2024-03-17T10:21:25;1.60;;;0.40;;
71423;SDS011;59240;51.370;-0.486;2024-03-17T10:26:22;0.50;;;0.35;;
71423;SDS011;59240;51.370;-0.486;2024-03-17T10:31:18;0.63;;;0.32;;
71423;SDS011;59240;51.370;-0.486;2024-03-17T10:36:16;0.65;;;0.32;;
71423;SDS011;59240;51.370;-0.486;2024-03-17T10:41:12;0.68;;;0.20;;
71423;SDS011;59240;51.370;-0.486;2024-03-17T10:46:10;2.53;;;0.45;;
71423;SDS011;59240;51.370;-0.486;2024-03-17T10:51:13;0.75;;;0.32;;
71423;SDS011;59240;51.370;-0.486;2024-03-17T10:56:12;0.55;;;0.40;;
71423;SDS011;59240;51.370;-0.486;2024-03-17T11:01:11;1.48;;;0.50;;
71423;SDS011;59240;51.370;-0.486;2024-03-17T11:06:07;1.00;;;0.73;;
71423;SDS011;59240;51.370;-0.486;2024-03-17T11:11:03;1.42;;;1.20;;
71423;SDS011;59240;51.370;-0.486;2024-03-17T11:15:59;2.30;;;0.90;;
71423;SDS011;59240;51.370;-0.486;2024-03-17T11:21:00;1.45;;;1.10;;
71423;SDS011;59240;51.370;-0.486;2024-03-17T11:26:10;3.03;;;1.42;;
71423;SDS011;59240;51.370;-0.486;2024-03-17T11:31:06;3.25;;;1.08;;
71423;SDS011;59240;51.370;-0.486;2024-03-17T11:46:38;2.15;;;0.77;;
71423;SDS011;59240;51.370;-0.486;2024-03-17T11:51:34;1.98;;;0.73;;
71423;SDS011;59240;51.370;-0.486;2024-03-17T11:56:29;1.17;;;0.85;;
71423;SDS011;59240;51.370;-0.486;2024-03-17T12:01:29;2.60;;;1.10;;
71423;SDS011;59240;51.370;-0.486;2024-03-17T12:06:25;2.63;;;1.02;;
71423;SDS011;59240;51.370;-0.486;2024-03-17T12:11:22;1.33;;;1.13;;
71423;SDS011;59240;51.370;-0.486;2024-03-17T12:16:18;2.90;;;1.67;;
71423;SDS011;59240;51.370;-0.486;2024-03-17T12:21:13;1.42;;;1.30;;
71423;SDS011;59240;51.370;-0.486;2024-03-17T12:26:13;1.88;;;1.52;;
71423;SDS011;59240;51.370;-0.486;2024-03-17T12:31:11;1.60;;;1.17;;
71423;SDS011;59240;51.370;-0.486;2024-03-17T12:36:07;2.58;;;1.40;;
71423;SDS011;59240;51.370;-0.486;2024-03-17T12:41:03;1.73;;;1.30;;
71423;SDS011;59240;51.370;-0.486;2024-03-17T12:46:04;3.08;;;1.40;;
71423;SDS011;59240;51.370;-0.486;2024-03-17T12:51:00;1.30;;;1.15;;
71423;SDS011;59240;51.370;-0.486;2024-03-17T12:55:55;1.90;;;1.20;;
71423;SDS011;59240;51.370;-0.486;2024-03-17T13:01:11;1.80;;;1.23;;
71423;SDS011;59240;51.370;-0.486;2024-03-17T13:06:09;2.85;;;1.42;;
71423;SDS011;59240;51.370;-0.486;2024-03-17T13:11:16;3.65;;;1.70;;
71423;SDS011;59240;51.370;-0.486;2024-03-17T13:16:12;3.92;;;1.20;;
71423;SDS011;59240;51.370;-0.486;2024-03-17T13:21:08;2.38;;;1.30;;
71423;SDS011;59240;51.370;-0.486;2024-03-17T13:26:04;2.78;;;1.30;;
71423;SDS011;59240;51.370;-0.486;2024-03-17T13:31:00;1.80;;;1.10;;
71423;SDS011;59240;51.370;-0.486;2024-03-17T13:35:56;1.92;;;1.00;;
71423;SDS011;59240;51.370;-0.486;2024-03-17T13:40:52;4.88;;;1.10;;
71423;SDS011;59240;51.370;-0.486;2024-03-17T13:45:47;1.92;;;0.88;;
71423;SDS011;59240;51.370;-0.486;2024-03-17T13:50:44;1.60;;;0.70;;
71423;SDS011;59240;51.370;-0.486;2024-03-17T13:55:42;2.65;;;1.15;;
71423;SDS011;59240;51.370;-0.486;2024-03-17T14:00:38;1.83;;;0.80;;
71423;SDS011;59240;51.370;-0.486;2024-03-17T14:05:35;3.40;;;1.52;;
71423;SDS011;59240;51.370;-0.486;2024-03-17T14:10:31;5.22;;;1.45;;
71423;SDS011;59240;51.370;-0.486;2024-03-17T14:15:26;1.55;;;0.80;;
71423;SDS011;59240;51.370;-0.486;2024-03-17T14:20:22;3.00;;;0.88;;
71423;SDS011;59240;51.370;-0.486;2024-03-17T14:25:18;5.43;;;1.30;;
71423;SDS011;59240;51.370;-0.486;2024-03-17T14:30:17;2.88;;;0.85;;
71423;SDS011;59240;51.370;-0.486;2024-03-17T14:35:15;3.72;;;0.95;;
71423;SDS011;59240;51.370;-0.486;2024-03-17T14:40:13;2.38;;;0.80;;
71423;SDS011;59240;51.370;-0.486;2024-03-17T14:45:17;4.85;;;0.80;;
71423;SDS011;59240;51.370;-0.486;2024-03-17T14:50:13;1.63;;;0.80;;
71423;SDS011;59240;51.370;-0.486;2024-03-17T14:55:09;4.15;;;0.65;;
71423;SDS011;59240;51.370;-0.486;2024-03-17T15:00:08;2.15;;;0.63;;
71423;SDS011;59240;51.370;-0.486;2024-03-17T15:05:11;4.07;;;0.90;;
71423;SDS011;59240;51.370;-0.486;2024-03-17T15:10:07;4.03;;;0.80;;
71423;SDS011;59240;51.370;-0.486;2024-03-17T15:15:03;1.92;;;0.50;;
71423;SDS011;59240;51.370;-0.486;2024-03-17T15:19:59;1.48;;;0.75;;
71423;SDS011;59240;51.370;-0.486;2024-03-17T15:24:55;1.08;;;0.50;;
71423;SDS011;59240;51.370;-0.486;2024-03-17T15:29:51;2.90;;;0.40;;
71423;SDS011;59240;51.370;-0.486;2024-03-17T15:34:47;3.17;;;0.50;;
71423;SDS011;59240;51.370;-0.486;2024-03-17T15:39:43;4.93;;;0.50;;
71423;SDS011;59240;51.370;-0.486;2024-03-17T15:44:40;12.50;;;6.18;;
71423;SDS011;59240;51.370;-0.486;2024-03-17T15:49:35;2.97;;;1.05;;
71423;SDS011;59240;51.370;-0.486;2024-03-17T15:54:32;7.88;;;4.55;;
71423;SDS011;59240;51.370;-0.486;2024-03-17T15:59:28;1.77;;;0.60;;
71423;SDS011;59240;51.370;-0.486;2024-03-17T16:04:23;4.07;;;0.80;;
71423;SDS011;59240;51.370;-0.486;2024-03-17T16:09:21;5.03;;;1.10;;
71423;SDS011;59240;51.370;-0.486;2024-03-17T16:14:17;1.50;;;0.70;;
71423;SDS011;59240;51.370;-0.486;2024-03-17T16:19:13;3.53;;;1.25;;
71423;SDS011;59240;51.370;-0.486;2024-03-17T16:24:16;3.25;;;0.80;;
71423;SDS011;59240;51.370;-0.486;2024-03-17T16:29:12;4.47;;;0.82;;
71423;SDS011;59240;51.370;-0.486;2024-03-17T16:34:10;1.55;;;0.77;;
71423;SDS011;59240;51.370;-0.486;2024-03-17T16:39:07;4.43;;;0.90;;
71423;SDS011;59240;51.370;-0.486;2024-03-17T16:50:03;3.97;;;1.45;;
71423;SDS011;59240;51.370;-0.486;2024-03-17T16:55:00;3.00;;;1.05;;
71423;SDS011;59240;51.370;-0.486;2024-03-17T16:59:56;3.97;;;1.15;;
71423;SDS011;59240;51.370;-0.486;2024-03-17T17:04:51;4.65;;;1.30;;
71423;SDS011;59240;51.370;-0.486;2024-03-17T17:09:48;6.35;;;1.70;;
71423;SDS011;59240;51.370;-0.486;2024-03-17T17:14:44;7.18;;;1.17;;
71423;SDS011;59240;51.370;-0.486;2024-03-17T17:19:40;5.03;;;1.20;;
71423;SDS011;59240;51.370;-0.486;2024-03-17T17:24:36;7.90;;;1.92;;
71423;SDS011;59240;51.370;-0.486;2024-03-17T17:29:33;3.63;;;1.75;;
71423;SDS011;59240;51.370;-0.486;2024-03-17T17:34:30;8.48;;;1.52;;
71423;SDS011;59240;51.370;-0.486;2024-03-17T17:39:26;5.65;;;1.85;;
71423;SDS011;59240;51.370;-0.486;2024-03-17T17:44:22;10.02;;;1.77;;
71423;SDS011;59240;51.370;-0.486;2024-03-17T17:49:18;5.00;;;1.25;;
71423;SDS011;59240;51.370;-0.486;2024-03-17T17:54:13;3.60;;;1.30;;
71423;SDS011;59240;51.370;-0.486;2024-03-17T17:59:10;3.50;;;0.68;;
71423;SDS011;59240;51.370;-0.486;2024-03-17T18:04:05;9.68;;;2.33;;
71423;SDS011;59240;51.370;-0.486;2024-03-17T18:09:01;12.45;;;1.67;;
71423;SDS011;59240;51.370;-0.486;2024-03-17T18:14:19;11.15;;;1.98;;
71423;SDS011;59240;51.370;-0.486;2024-03-17T18:19:19;11.57;;;2.00;;
71423;SDS011;59240;51.370;-0.486;2024-03-17T18:24:14;9.20;;;1.40;;
71423;SDS011;59240;51.370;-0.486;2024-03-17T18:29:10;10.27;;;2.65;;
71423;SDS011;59240;51.370;-0.486;2024-03-17T18:34:07;6.95;;;1.65;;
71423;SDS011;59240;51.370;-0.486;2024-03-17T18:39:03;10.32;;;1.65;;
71423;SDS011;59240;51.370;-0.486;2024-03-17T18:43:58;11.65;;;1.88;;
71423;SDS011;59240;51.370;-0.486;2024-03-17T18:48:54;6.68;;;1.48;;
71423;SDS011;59240;51.370;-0.486;2024-03-17T18:53:50;10.70;;;2.20;;
71423;SDS011;59240;51.370;-0.486;2024-03-17T18:58:49;18.55;;;2.42;;
71423;SDS011;59240;51.370;-0.486;2024-03-17T19:03:44;6.65;;;1.92;;
71423;SDS011;59240;51.370;-0.486;2024-03-17T19:08:40;8.85;;;1.80;;
71423;SDS011;59240;51.370;-0.486;2024-03-17T19:13:36;6.82;;;2.20;;
71423;SDS011;59240;51.370;-0.486;2024-03-17T19:18:33;9.50;;;2.25;;
71423;SDS011;59240;51.370;-0.486;2024-03-17T19:23:32;5.05;;;1.75;;
71423;SDS011;59240;51.370;-0.486;2024-03-17T19:28:28;10.80;;;1.70;;
71423;SDS011;59240;51.370;-0.486;2024-03-17T19:33:25;9.32;;;1.60;;
71423;SDS011;59240;51.370;-0.486;2024-03-17T19:38:22;7.57;;;1.70;;
71423;SDS011;59240;51.370;-0.486;2024-03-17T19:43:19;7.68;;;1.65;;
71423;SDS011;59240;51.370;-0.486;2024-03-17T19:48:14;8.40;;;1.67;;
71423;SDS011;59240;51.370;-0.486;2024-03-17T19:53:10;12.48;;;2.05;;
71423;SDS011;59240;51.370;-0.486;2024-03-17T19:58:06;9.52;;;2.25;;
71423;SDS011;59240;51.370;-0.486;2024-03-17T20:03:02;9.80;;;1.90;;
71423;SDS011;59240;51.370;-0.486;2024-03-17T20:07:58;6.97;;;1.63;;
71423;SDS011;59240;51.370;-0.486;2024-03-17T20:12:54;5.90;;;1.55;;
71423;SDS011;59240;51.370;-0.486;2024-03-17T20:17:51;10.40;;;2.47;;
71423;SDS011;59240;51.370;-0.486;2024-03-17T20:22:48;6.40;;;1.67;;
71423;SDS011;59240;51.370;-0.486;2024-03-17T20:27:44;10.30;;;1.67;;
71423;SDS011;59240;51.370;-0.486;2024-03-17T20:32:40;9.50;;;1.95;;
71423;SDS011;59240;51.370;-0.486;2024-03-17T20:37:35;7.80;;;2.20;;
71423;SDS011;59240;51.370;-0.486;2024-03-17T20:42:33;12.13;;;1.88;;
71423;SDS011;59240;51.370;-0.486;2024-03-17T20:47:29;15.43;;;2.15;;
71423;SDS011;59240;51.370;-0.486;2024-03-17T20:52:26;12.32;;;2.22;;
71423;SDS011;59240;51.370;-0.486;2024-03-17T20:57:22;7.97;;;1.60;;
71423;SDS011;59240;51.370;-0.486;2024-03-17T21:02:18;16.20;;;1.80;;
71423;SDS011;59240;51.370;-0.486;2024-03-17T21:07:13;9.70;;;1.77;;
71423;SDS011;59240;51.370;-0.486;2024-03-17T21:12:10;12.88;;;2.30;;
71423;SDS011;59240;51.370;-0.486;2024-03-17T21:17:05;11.30;;;1.88;;
71423;SDS011;59240;51.370;-0.486;2024-03-17T21:22:01;7.60;;;2.40;;
71423;SDS011;59240;51.370;-0.486;2024-03-17T21:26:57;10.43;;;2.08;;
71423;SDS011;59240;51.370;-0.486;2024-03-17T21:31:52;10.10;;;1.95;;
71423;SDS011;59240;51.370;-0.486;2024-03-17T21:36:50;12.07;;;2.22;;
71423;SDS011;59240;51.370;-0.486;2024-03-17T21:41:45;10.35;;;2.28;;
71423;SDS011;59240;51.370;-0.486;2024-03-17T21:46:41;11.15;;;2.58;;
71423;SDS011;59240;51.370;-0.486;2024-03-17T21:51:37;17.63;;;2.40;;
71423;SDS011;59240;51.370;-0.486;2024-03-17T21:56:33;10.68;;;3.03;;
71423;SDS011;59240;51.370;-0.486;2024-03-17T22:01:28;13.50;;;2.70;;
71423;SDS011;59240;51.370;-0.486;2024-03-17T22:06:24;13.15;;;2.42;;
71423;SDS011;59240;51.370;-0.486;2024-03-17T22:11:24;11.30;;;2.30;;
71423;SDS011;59240;51.370;-0.486;2024-03-17T22:16:19;11.00;;;2.58;;
71423;SDS011;59240;51.370;-0.486;2024-03-17T22:21:15;15.52;;;2.25;;
71423;SDS011;59240;51.370;-0.486;2024-03-17T22:26:11;10.70;;;2.33;;
71423;SDS011;59240;51.370;-0.486;2024-03-17T22:31:06;11.57;;;3.38;;
71423;SDS011;59240;51.370;-0.486;2024-03-17T22:36:04;8.45;;;2.90;;
71423;SDS011;59240;51.370;-0.486;2024-03-17T22:46:01;12.02;;;2.80;;
71423;SDS011;59240;51.370;-0.486;2024-03-17T22:51:01;11.82;;;2.67;;
71423;SDS011;59240;51.370;-0.486;2024-03-17T22:56:03;11.20;;;2.42;;
71423;SDS011;59240;51.370;-0.486;2024-03-17T23:00:59;10.52;;;2.13;;
71423;SDS011;59240;51.370;-0.486;2024-03-17T23:05:57;14.45;;;2.63;;
71423;SDS011;59240;51.370;-0.486;2024-03-17T23:10:57;9.80;;;2.13;;
71423;SDS011;59240;51.370;-0.486;2024-03-17T23:15:55;9.20;;;2.22;;
71423;SDS011;59240;51.370;-0.486;2024-03-17T23:20:53;14.60;;;3.30;;
71423;SDS011;59240;51.370;-0.486;2024-03-17T23:25:49;13.50;;;3.53;;
71423;SDS011;59240;51.370;-0.486;2024-03-17T23:30:45;17.30;;;2.60;;
71423;SDS011;59240;51.370;-0.486;2024-03-17T23:35:41;17.13;;;2.92;;
71423;SDS011;59240;51.370;-0.486;2024-03-17T23:40:48;8.40;;;2.20;;
71423;SDS011;59240;51.370;-0.486;2024-03-17T23:45:44;11.80;;;2.35;;
71423;SDS011;59240;51.370;-0.486;2024-03-17T23:50:40;13.43;;;3.00;;
71423;SDS011;59240;51.370;-0.486;2024-03-17T23:55:36;13.73;;;3.03;;
